Time;durP1;ratioP1;P1;durP2;ratioP2;P2;SDS_P1;SDS_P2;PMS_P1;PMS_P2;Temp;Humidity;BMP_temperature;BMP_pressure;BME280_temperature;BME280_humidity;BME280_pressure;Samples;Min_cycle;Max_cycle;Signal;HPM_P1;HPM_P2
2023/05/30 00:03:05;;;;;;;4.10;3.40;;;9.30;1.00;;;;;;8263091;28;20206;-65
2023/05/30 00:07:06;;;;;;;4.53;3.53;;;9.20;1.00;;;;;;8255800;28;20215;-65
2023/05/30 00:11:08;;;;;;;4.13;3.47;;;9.20;1.00;;;;;;8269716;28;20275;-74
2023/05/30 00:15:10;;;;;;;3.97;3.20;;;9.10;1.00;;;;;;8270368;28;20198;-74
2023/05/30 00:19:12;;;;;;;4.30;3.90;;;9.10;1.00;;;;;;8275567;28;20192;-74
2023/05/30 00:23:13;;;;;;;6.67;4.27;;;9.10;1.00;;;;;;8259857;28;20188;-74
2023/05/30 00:27:14;;;;;;;4.07;3.63;;;9.10;1.00;;;;;;8267080;28;20219;-76
2023/05/30 00:31:15;;;;;;;4.40;3.90;;;9.20;1.00;;;;;;8269317;28;20194;-75
2023/05/30 00:35:16;;;;;;;5.13;3.97;;;9.10;1.00;;;;;;8284748;28;20183;-74
2023/05/30 00:39:18;;;;;;;5.27;3.57;;;9.10;1.00;;;;;;8279906;28;20184;-73
2023/05/30 00:43:19;;;;;;;5.13;4.33;;;9.10;1.00;;;;;;8262501;28;20188;-75
2023/05/30 00:47:20;;;;;;;7.13;4.03;;;9.00;1.00;;;;;;8260985;28;20215;-72
2023/05/30 00:51:22;;;;;;;5.23;3.87;;;9.00;1.00;;;;;;8286570;28;20191;-73
2023/05/30 00:55:27;;;;;;;6.10;4.43;;;8.90;1.00;;;;;;8261571;28;20305;-75
2023/05/30 00:59:28;;;;;;;6.43;4.43;;;9.00;1.00;;;;;;8281915;28;20196;-76
2023/05/30 01:03:32;;;;;;;5.43;4.03;;;8.90;1.00;;;;;;8268863;28;20215;-75
2023/05/30 01:07:34;;;;;;;4.13;3.47;;;8.90;1.00;;;;;;8278207;28;20298;-74
2023/05/30 01:11:42;;;;;;;5.57;3.90;;;8.90;1.00;;;;;;8271443;28;20192;-75
2023/05/30 01:15:49;;;;;;;3.93;3.50;;;8.90;1.00;;;;;;8276918;28;20203;-75
2023/05/30 01:20:13;;;;;;;5.63;3.40;;;8.80;1.00;;;;;;8281121;28;20188;-76
2023/05/30 01:24:20;;;;;;;5.53;3.63;;;8.80;1.00;;;;;;8282612;28;20191;-75
2023/05/30 01:28:23;;;;;;;5.57;3.70;;;8.80;1.00;;;;;;8277900;28;20190;-75
2023/05/30 01:32:28;;;;;;;6.43;3.60;;;8.80;1.00;;;;;;8286005;28;20184;-74
2023/05/30 01:36:30;;;;;;;4.43;3.77;;;8.80;1.00;;;;;;8271710;28;20187;-75
2023/05/30 01:40:32;;;;;;;5.37;3.50;;;8.90;1.00;;;;;;8282661;28;20256;-74
2023/05/30 01:44:40;;;;;;;4.83;3.60;;;8.80;1.00;;;;;;8280760;28;20299;-76
2023/05/30 01:49:02;;;;;;;6.07;4.03;;;8.80;1.00;;;;;;8269309;28;20191;-76
2023/05/30 01:53:12;;;;;;;5.53;3.70;;;8.80;1.00;;;;;;8281717;28;20191;-76
2023/05/30 01:57:16;;;;;;;6.90;3.70;;;8.90;1.00;;;;;;8261710;28;20250;-76
2023/05/30 02:01:20;;;;;;;8.13;4.10;;;8.80;1.00;;;;;;8266565;28;20186;-76
2023/05/30 02:05:21;;;;;;;8.43;3.87;;;8.80;1.00;;;;;;8270678;28;20342;-66
2023/05/30 02:09:23;;;;;;;5.63;3.60;;;8.80;1.00;;;;;;8269730;28;20239;-65
2023/05/30 02:13:26;;;;;;;4.30;3.40;;;8.80;1.00;;;;;;8267289;28;20186;-65
2023/05/30 02:17:27;;;;;;;5.50;4.03;;;8.80;1.00;;;;;;8264089;28;20180;-66
2023/05/30 02:21:28;;;;;;;7.23;4.50;;;8.80;1.00;;;;;;8257529;28;20282;-65
2023/05/30 02:25:30;;;;;;;5.67;3.90;;;8.80;1.00;;;;;;8271637;28;20204;-64
2023/05/30 02:29:31;;;;;;;6.07;3.67;;;8.70;1.00;;;;;;8254446;28;20192;-65
2023/05/30 02:33:32;;;;;;;6.30;4.00;;;8.60;1.00;;;;;;8259548;28;20231;-64
2023/05/30 02:37:33;;;;;;;9.43;3.73;;;8.60;1.00;;;;;;8259949;28;20187;-65
2023/05/30 02:41:36;;;;;;;5.73;3.40;;;8.60;1.00;;;;;;8258937;28;20194;-65
2023/05/30 02:45:40;;;;;;;6.87;4.13;;;8.60;1.00;;;;;;8256517;28;20302;-65
2023/05/30 02:49:41;;;;;;;4.30;3.43;;;8.50;1.00;;;;;;8271444;28;20184;-65
2023/05/30 02:53:42;;;;;;;7.73;3.43;;;8.50;1.00;;;;;;8266705;28;20191;-65
2023/05/30 02:57:43;;;;;;;8.13;4.30;;;8.50;1.00;;;;;;8267795;28;20270;-64
2023/05/30 03:01:44;;;;;;;5.37;3.40;;;8.50;1.00;;;;;;8260596;28;20192;-65
2023/05/30 03:05:49;;;;;;;7.10;3.60;;;8.60;1.00;;;;;;8268322;28;20223;-68
2023/05/30 03:09:50;;;;;;;4.97;3.57;;;8.70;1.00;;;;;;8268988;28;20318;-69
2023/05/30 03:13:51;;;;;;;4.17;3.30;;;8.90;1.00;;;;;;8270218;28;20187;-68
2023/05/30 03:17:52;;;;;;;11.97;3.40;;;9.30;1.00;;;;;;8255647;28;20311;-68
2023/05/30 03:21:53;;;;;;;5.70;3.33;;;9.90;99.90;;;;;;8256185;28;20195;-68
2023/05/30 03:25:54;;;;;;;5.67;3.10;;;10.40;99.90;;;;;;8270118;28;20318;-68
2023/05/30 03:29:56;;;;;;;4.63;3.03;;;11.00;99.90;;;;;;8267355;28;20195;-68
2023/05/30 03:33:57;;;;;;;5.70;3.13;;;11.50;99.90;;;;;;8259033;28;20206;-68
2023/05/30 03:37:58;;;;;;;4.43;2.73;;;12.10;99.90;;;;;;8268056;28;20203;-67
2023/05/30 03:42:01;;;;;;;8.73;3.13;;;12.70;84.90;;;;;;8255215;28;20311;-66
2023/05/30 03:46:03;;;;;;;5.57;3.00;;;13.40;18.80;;;;;;8257631;28;20218;-66
2023/05/30 03:50:04;;;;;;;4.70;2.57;;;14.10;1.00;;;;;;8253137;28;20187;-66
2023/05/30 03:54:07;;;;;;;6.30;3.30;;;14.70;1.00;;;;;;8269189;28;20222;-66
2023/05/30 03:58:08;;;;;;;5.63;2.77;;;15.20;1.00;;;;;;8254925;28;20269;-67
2023/05/30 04:02:09;;;;;;;7.67;3.53;;;15.30;1.00;;;;;;8283256;28;20213;-67
2023/05/30 04:06:11;;;;;;;6.10;2.77;;;15.30;1.00;;;;;;8254289;28;20218;-66
2023/05/30 04:10:12;;;;;;;8.00;2.90;;;15.60;1.00;;;;;;8254722;28;20182;-66
2023/05/30 04:14:14;;;;;;;9.37;3.03;;;15.90;1.00;;;;;;8253951;28;20190;-66
2023/05/30 04:18:17;;;;;;;9.60;3.03;;;15.90;1.00;;;;;;8257154;28;20203;-66
2023/05/30 04:22:18;;;;;;;6.07;2.50;;;16.00;1.00;;;;;;8270613;28;20195;-66
2023/05/30 04:26:25;;;;;;;6.43;3.10;;;16.10;1.00;;;;;;8254811;28;20229;-65
2023/05/30 04:30:26;;;;;;;6.10;3.37;;;16.20;1.00;;;;;;8271109;28;20253;-65
2023/05/30 04:34:29;;;;;;;6.70;2.90;;;16.30;1.00;;;;;;8254046;28;20194;-66
2023/05/30 04:38:34;;;;;;;9.80;3.07;;;16.20;1.00;;;;;;8250418;28;20307;-65
2023/05/30 04:42:38;;;;;;;5.80;2.73;;;16.10;1.00;;;;;;8249123;28;20183;-64
2023/05/30 04:46:46;;;;;;;8.50;2.80;;;16.00;1.00;;;;;;8264790;28;20276;-65
2023/05/30 04:50:50;;;;;;;4.90;2.40;;;16.00;1.00;;;;;;8254838;28;20294;-65
2023/05/30 04:54:52;;;;;;;4.53;2.30;;;16.10;1.00;;;;;;8276352;28;20223;-65
2023/05/30 04:58:53;;;;;;;6.27;2.43;;;16.10;1.00;;;;;;8266310;28;20183;-65
2023/05/30 05:02:54;;;;;;;6.23;2.83;;;15.80;1.00;;;;;;8255837;28;20295;-65
2023/05/30 05:06:57;;;;;;;5.93;3.00;;;16.00;1.00;;;;;;8249558;28;20248;-66
2023/05/30 05:10:58;;;;;;;6.67;2.77;;;15.60;1.00;;;;;;8264575;28;20242;-67
2023/05/30 05:14:59;;;;;;;8.27;3.00;;;14.50;1.00;;;;;;8250949;28;20479;-65
2023/05/30 05:19:00;;;;;;;8.40;3.00;;;13.80;1.00;;;;;;8255365;28;20197;-66
2023/05/30 05:23:01;;;;;;;6.77;2.90;;;13.40;1.00;;;;;;8251785;28;20191;-66
2023/05/30 05:27:02;;;;;;;5.17;2.47;;;13.10;1.00;;;;;;8263442;28;20215;-65
2023/05/30 05:31:04;;;;;;;6.70;2.70;;;13.10;1.00;;;;;;8251519;28;20215;-65
2023/05/30 05:35:07;;;;;;;4.70;2.73;;;12.90;1.00;;;;;;8255570;28;20200;-66
2023/05/30 05:39:09;;;;;;;7.30;2.63;;;12.90;1.00;;;;;;8255762;28;20230;-66
2023/05/30 05:43:13;;;;;;;9.60;2.80;;;13.00;1.00;;;;;;8249132;28;20200;-66
2023/05/30 05:47:15;;;;;;;7.10;2.90;;;13.00;1.00;;;;;;8257309;28;20214;-66
2023/05/30 05:51:16;;;;;;;5.30;2.13;;;13.20;1.00;;;;;;8253901;28;20197;-66
2023/05/30 05:55:19;;;;;;;7.27;2.37;;;13.20;1.00;;;;;;8258353;28;20195;-65
2023/05/30 05:59:20;;;;;;;6.27;2.67;;;13.20;1.00;;;;;;8259050;28;20191;-67
2023/05/30 06:03:22;;;;;;;6.83;2.83;;;13.30;1.00;;;;;;8255931;28;20214;-65
2023/05/30 06:07:26;;;;;;;6.73;2.37;;;13.50;1.00;;;;;;8256717;28;21025;-68
2023/05/30 06:11:28;;;;;;;6.90;2.70;;;13.70;1.00;;;;;;8254196;28;20275;-66
2023/05/30 06:15:32;;;;;;;6.57;1.60;;;13.80;1.00;;;;;;8257578;28;20210;-66
2023/05/30 06:19:34;;;;;;;6.57;1.90;;;13.70;1.00;;;;;;8269999;28;20271;-65
2023/05/30 06:23:35;;;;;;;4.57;2.10;;;13.90;1.00;;;;;;8253474;28;20183;-67
2023/05/30 06:27:36;;;;;;;5.90;1.90;;;14.00;1.00;;;;;;8270565;28;20222;-67
2023/05/30 06:31:37;;;;;;;3.33;1.53;;;14.10;1.00;;;;;;8255697;28;20195;-65
2023/05/30 06:35:40;;;;;;;4.73;1.90;;;14.30;1.00;;;;;;8272647;28;20203;-67
2023/05/30 06:39:42;;;;;;;3.63;1.57;;;14.30;1.00;;;;;;8254496;28;20276;-66
2023/05/30 06:43:43;;;;;;;4.77;1.33;;;14.40;1.00;;;;;;8273740;28;20192;-66
2023/05/30 06:47:46;;;;;;;5.73;1.93;;;14.50;1.00;;;;;;8256202;28;20207;-66
2023/05/30 06:51:47;;;;;;;3.97;1.60;;;14.60;1.00;;;;;;8257856;28;20183;-68
2023/05/30 06:55:48;;;;;;;3.83;1.40;;;14.80;1.00;;;;;;8262665;28;20253;-68
2023/05/30 06:59:49;;;;;;;4.23;1.30;;;15.00;1.00;;;;;;8256894;28;20183;-66
2023/05/30 07:03:50;;;;;;;2.43;1.20;;;15.30;1.00;;;;;;8261625;28;20234;-66
2023/05/30 07:07:52;;;;;;;5.97;1.67;;;15.50;1.00;;;;;;8258519;28;20222;-67
2023/05/30 07:11:53;;;;;;;3.53;1.07;;;15.50;1.00;;;;;;8255538;28;20305;-67
2023/05/30 07:15:55;;;;;;;3.20;1.20;;;15.50;1.00;;;;;;8252311;28;20191;-67
2023/05/30 07:19:56;;;;;;;2.63;1.00;;;15.60;1.00;;;;;;8286977;28;20211;-67
2023/05/30 07:24:03;;;;;;;3.93;1.03;;;15.70;1.00;;;;;;8266593;28;20213;-65
2023/05/30 07:28:04;;;;;;;4.00;2.00;;;15.60;1.00;;;;;;8269832;28;20204;-67
2023/05/30 07:32:05;;;;;;;4.27;1.33;;;15.60;1.00;;;;;;8269027;28;20294;-67
2023/05/30 07:36:07;;;;;;;3.13;2.00;;;15.90;1.00;;;;;;8270136;28;20302;-64
2023/05/30 07:40:08;;;;;;;3.73;1.13;;;16.10;1.00;;;;;;8257180;28;20211;-65
2023/05/30 07:44:11;;;;;;;3.70;0.97;;;16.30;1.00;;;;;;8273426;28;20190;-67
2023/05/30 07:48:13;;;;;;;2.73;1.37;;;16.50;1.00;;;;;;8270827;28;20215;-67
2023/05/30 07:52:15;;;;;;;3.90;1.33;;;16.60;1.00;;;;;;8272605;28;20179;-67
2023/05/30 07:56:16;;;;;;;2.07;0.90;;;16.70;1.00;;;;;;8262470;28;20202;-65
2023/05/30 08:00:17;;;;;;;7.83;1.17;;;16.70;1.00;;;;;;8266731;28;20192;-64
2023/05/30 08:04:18;;;;;;;3.67;1.10;;;16.70;1.00;;;;;;8255913;28;20214;-66
2023/05/30 08:08:25;;;;;;;3.90;1.10;;;16.60;1.00;;;;;;8268242;28;20188;-66
2023/05/30 08:12:29;;;;;;;4.30;1.23;;;16.60;1.00;;;;;;8252516;28;20194;-67
2023/05/30 08:16:30;;;;;;;3.40;1.20;;;17.00;1.00;;;;;;8255910;28;20188;-67
2023/05/30 08:20:31;;;;;;;5.10;1.10;;;16.90;1.00;;;;;;8259071;28;20211;-66
2023/05/30 08:24:32;;;;;;;1.97;1.00;;;16.80;1.00;;;;;;8256699;28;20187;-66
2023/05/30 08:28:33;;;;;;;3.43;1.20;;;16.90;1.00;;;;;;8269884;28;20269;-67
2023/05/30 08:32:38;;;;;;;6.83;1.37;;;17.10;1.00;;;;;;8251237;28;20198;-70
2023/05/30 08:36:40;;;;;;;4.30;1.80;;;17.40;1.00;;;;;;8250244;28;20198;-69
2023/05/30 08:40:43;;;;;;;2.73;1.20;;;17.60;1.00;;;;;;8254442;28;20200;-68
2023/05/30 08:44:44;;;;;;;6.27;1.20;;;17.60;1.00;;;;;;8257798;28;20219;-66
2023/05/30 08:48:50;;;;;;;2.77;1.13;;;17.70;1.00;;;;;;8281648;28;20218;-68
2023/05/30 08:52:53;;;;;;;1.57;0.90;;;17.70;1.00;;;;;;8248761;28;20269;-65
2023/05/30 08:57:09;;;;;;;5.80;1.60;;;17.50;1.00;;;;;;8266790;28;20211;-67
2023/05/30 09:01:12;;;;;;;2.30;1.20;;;17.30;1.00;;;;;;8269215;28;20191;-67
2023/05/30 09:05:16;;;;;;;3.60;1.70;;;17.20;1.00;;;;;;8252764;28;20222;-67
2023/05/30 09:09:18;;;;;;;3.37;1.17;;;17.40;1.00;;;;;;8250572;28;20191;-66
2023/05/30 09:13:20;;;;;;;3.73;1.40;;;17.40;1.00;;;;;;8253892;28;20187;-66
2023/05/30 09:17:25;;;;;;;3.33;1.53;;;17.40;1.00;;;;;;8252466;28;20196;-65
2023/05/30 09:21:28;;;;;;;7.07;2.03;;;17.40;1.00;;;;;;8268694;28;20198;-65
2023/05/30 09:25:47;;;;;;;3.83;1.33;;;17.40;1.00;;;;;;8257762;28;20263;-66
2023/05/30 09:29:51;;;;;;;2.40;1.13;;;17.60;1.00;;;;;;8253989;28;20226;-67
2023/05/30 09:33:53;;;;;;;4.50;1.20;;;17.80;1.00;;;;;;8254366;28;20199;-68
2023/05/30 09:37:55;;;;;;;4.00;1.60;;;17.90;1.00;;;;;;8286081;28;20211;-66
2023/05/30 09:41:57;;;;;;;3.33;1.40;;;18.10;1.00;;;;;;8269432;28;20203;-69
2023/05/30 09:46:01;;;;;;;2.07;1.40;;;18.40;1.00;;;;;;8271367;28;20306;-67
2023/05/30 09:50:03;;;;;;;4.00;1.23;;;18.50;1.00;;;;;;8254790;28;20196;-67
2023/05/30 09:54:06;;;;;;;1.70;0.90;;;18.50;1.00;;;;;;8275243;28;20195;-66
2023/05/30 09:58:18;;;;;;;3.83;1.00;;;18.60;1.00;;;;;;8270199;28;20204;-67
2023/05/30 10:02:22;;;;;;;2.13;1.20;;;18.60;1.00;;;;;;8259211;28;20194;-67
2023/05/30 10:06:24;;;;;;;2.10;1.10;;;18.80;1.00;;;;;;8255477;28;20227;-68
2023/05/30 10:10:25;;;;;;;3.90;1.30;;;18.70;1.00;;;;;;8261268;28;20207;-67
2023/05/30 10:14:28;;;;;;;2.07;1.10;;;18.80;1.00;;;;;;8260971;28;20197;-66
2023/05/30 10:18:31;;;;;;;3.13;1.30;;;18.80;1.00;;;;;;8270070;28;20199;-65
2023/05/30 10:22:40;;;;;;;2.33;1.10;;;18.60;1.00;;;;;;8266000;28;20222;-66
2023/05/30 10:26:59;;;;;;;2.37;0.97;;;18.70;1.00;;;;;;8262360;28;20225;-66
2023/05/30 10:31:03;;;;;;;3.33;1.20;;;18.70;1.00;;;;;;8255433;28;20187;-67
2023/05/30 10:35:32;;;;;;;5.53;1.30;;;18.70;1.00;;;;;;8288260;28;20296;-67
2023/05/30 10:40:12;;;;;;;1.90;0.90;;;18.90;1.00;;;;;;8271105;28;20207;-72
2023/05/30 10:44:32;;;;;;;2.13;1.17;;;19.20;1.00;;;;;;8272453;28;20184;-69
2023/05/30 10:48:59;;;;;;;3.87;1.33;;;19.20;1.00;;;;;;8277801;28;20196;-71
2023/05/30 10:53:00;;;;;;;2.17;0.90;;;19.40;1.00;;;;;;8272713;28;20191;-68
2023/05/30 10:57:28;;;;;;;2.77;1.20;;;19.40;1.00;;;;;;8255155;28;20200;-70
2023/05/30 11:01:33;;;;;;;2.40;1.03;;;19.30;1.00;;;;;;8276290;28;20206;-70
2023/05/30 11:05:34;;;;;;;4.30;1.40;;;19.20;1.00;;;;;;8272338;28;20211;-72
2023/05/30 11:10:02;;;;;;;2.33;0.93;;;19.30;1.00;;;;;;8276884;28;20262;-72
2023/05/30 11:14:08;;;;;;;3.50;1.50;;;19.50;1.00;;;;;;8254570;28;20238;-72
2023/05/30 11:18:16;;;;;;;6.20;1.43;;;19.70;1.00;;;;;;8275829;28;20195;-71
2023/05/30 11:22:23;;;;;;;2.63;1.10;;;19.80;1.00;;;;;;8258356;28;20310;-72
2023/05/30 11:26:56;;;;;;;2.37;1.53;;;19.90;1.00;;;;;;8269274;28;20226;-70
2023/05/30 11:30:59;;;;;;;2.80;1.40;;;19.80;1.00;;;;;;8274472;28;20188;-72
2023/05/30 11:35:06;;;;;;;2.83;1.30;;;20.00;1.00;;;;;;8245869;28;20199;-74
2023/05/30 11:39:07;;;;;;;3.73;1.70;;;20.10;1.00;;;;;;8255199;28;20191;-66
2023/05/30 11:43:08;;;;;;;3.10;1.20;;;20.20;1.00;;;;;;8264159;28;20270;-65
2023/05/30 11:47:18;;;;;;;2.07;1.23;;;20.20;1.00;;;;;;8255665;28;20238;-68
2023/05/30 11:51:19;;;;;;;3.57;1.37;;;20.30;1.00;;;;;;8258111;28;20198;-67
2023/05/30 11:55:22;;;;;;;1.87;1.30;;;20.10;1.00;;;;;;8249896;28;20207;-67
2023/05/30 11:59:25;;;;;;;2.50;1.30;;;20.10;1.00;;;;;;8259646;28;20199;-67
2023/05/30 12:03:27;;;;;;;2.37;1.30;;;20.20;1.00;;;;;;8256576;28;20210;-66
2023/05/30 12:07:29;;;;;;;4.87;1.13;;;20.30;1.00;;;;;;8269136;28;20211;-66
2023/05/30 12:11:30;;;;;;;1.77;1.40;;;20.40;1.00;;;;;;8270188;28;20187;-67
2023/05/30 12:15:31;;;;;;;2.87;1.37;;;20.40;1.00;;;;;;8266576;28;20207;-67
2023/05/30 12:19:33;;;;;;;4.00;1.37;;;20.50;1.00;;;;;;8256949;28;20207;-70
2023/05/30 12:23:39;;;;;;;2.43;1.30;;;20.50;1.00;;;;;;8257118;28;20219;-72
2023/05/30 12:27:47;;;;;;;2.43;1.27;;;20.50;1.00;;;;;;8269862;28;20207;-70
2023/05/30 12:31:48;;;;;;;3.27;1.27;;;20.40;1.00;;;;;;8264976;28;20196;-74
2023/05/30 12:35:56;;;;;;;3.43;1.27;;;20.30;1.00;;;;;;8284398;28;20285;-73
2023/05/30 12:39:59;;;;;;;2.03;1.20;;;20.30;1.00;;;;;;8260578;28;20192;-71
2023/05/30 12:44:00;;;;;;;3.87;1.50;;;20.40;1.00;;;;;;8274053;28;20198;-73
2023/05/30 12:48:01;;;;;;;4.07;1.60;;;20.40;1.00;;;;;;8262701;28;20223;-70
2023/05/30 12:52:02;;;;;;;3.37;1.30;;;20.60;1.00;;;;;;8271367;28;20195;-68
2023/05/30 12:56:05;;;;;;;1.87;0.97;;;20.50;1.00;;;;;;8259769;28;20209;-73
2023/05/30 13:00:11;;;;;;;4.87;1.30;;;20.60;1.00;;;;;;8254410;28;20187;-72
2023/05/30 13:04:12;;;;;;;3.50;1.27;;;20.50;1.00;;;;;;8268977;28;20227;-69
2023/05/30 13:08:13;;;;;;;4.47;1.77;;;20.50;1.00;;;;;;8256662;28;20226;-70
2023/05/30 13:12:15;;;;;;;1.80;1.00;;;20.50;1.00;;;;;;8256012;28;20245;-72
2023/05/30 13:16:18;;;;;;;2.90;1.20;;;20.50;1.00;;;;;;8265656;28;20192;-73
2023/05/30 13:20:19;;;;;;;2.63;1.30;;;20.50;1.00;;;;;;8254993;28;20183;-69
2023/05/30 13:24:20;;;;;;;3.47;1.20;;;20.50;1.00;;;;;;8268300;28;20203;-68
2023/05/30 13:28:23;;;;;;;5.37;1.40;;;20.50;1.00;;;;;;8255123;28;20215;-69
2023/05/30 13:32:24;;;;;;;3.13;1.50;;;20.50;1.00;;;;;;8273525;28;20180;-72
2023/05/30 13:36:26;;;;;;;2.87;1.57;;;20.60;1.00;;;;;;8261310;28;20199;-69
2023/05/30 13:40:27;;;;;;;2.03;1.10;;;20.60;1.00;;;;;;8259971;28;20223;-72
2023/05/30 13:44:28;;;;;;;2.20;1.27;;;20.80;1.00;;;;;;8286533;28;20195;-73
2023/05/30 13:48:29;;;;;;;4.70;1.77;;;20.90;1.00;;;;;;8273415;28;20215;-71
2023/05/30 13:52:30;;;;;;;4.80;1.40;;;21.10;1.00;;;;;;8261176;28;20187;-73
2023/05/30 13:56:31;;;;;;;2.63;0.80;;;21.20;1.00;;;;;;8260662;28;20270;-70
2023/05/30 14:00:35;;;;;;;3.97;1.17;;;21.10;1.00;;;;;;8271785;28;20222;-69
2023/05/30 14:04:36;;;;;;;3.47;1.40;;;21.00;1.00;;;;;;8266323;28;20240;-69
2023/05/30 14:08:37;;;;;;;7.67;1.60;;;20.80;1.00;;;;;;8270761;28;20210;-71
2023/05/30 14:12:38;;;;;;;2.03;1.20;;;20.80;1.00;;;;;;8269439;28;20184;-71
2023/05/30 14:16:41;;;;;;;3.03;1.63;;;20.90;1.00;;;;;;8262530;28;20186;-71
2023/05/30 14:20:43;;;;;;;2.67;1.40;;;20.90;1.00;;;;;;8262469;28;20195;-72
2023/05/30 14:24:44;;;;;;;3.53;1.37;;;20.80;1.00;;;;;;8270858;28;20196;-72
2023/05/30 14:28:47;;;;;;;3.10;1.50;;;21.00;1.00;;;;;;8263773;28;20192;-71
2023/05/30 14:32:48;;;;;;;2.73;1.27;;;21.00;1.00;;;;;;8259067;28;20182;-72
2023/05/30 14:36:49;;;;;;;3.57;1.53;;;21.10;1.00;;;;;;8263834;28;20268;-70
2023/05/30 14:40:50;;;;;;;3.20;1.23;;;21.40;1.00;;;;;;8263868;28;20190;-69
2023/05/30 14:44:51;;;;;;;4.10;1.60;;;21.20;1.00;;;;;;8272000;28;20179;-70
2023/05/30 14:48:52;;;;;;;3.13;1.23;;;21.00;1.00;;;;;;8260063;28;20183;-68
2023/05/30 14:52:54;;;;;;;3.13;1.30;;;20.90;1.00;;;;;;8270782;28;20271;-70
2023/05/30 14:56:55;;;;;;;3.07;1.43;;;20.90;1.00;;;;;;8258835;28;20199;-72
2023/05/30 15:00:56;;;;;;;2.93;1.60;;;21.20;1.00;;;;;;8258340;28;20202;-73
2023/05/30 15:04:57;;;;;;;4.70;1.50;;;21.30;1.00;;;;;;8259865;28;20293;-71
2023/05/30 15:08:59;;;;;;;2.90;1.30;;;21.40;1.00;;;;;;8271217;28;20188;-71
2023/05/30 15:13:03;;;;;;;1.77;1.23;;;21.60;1.00;;;;;;8269787;28;20230;-72
2023/05/30 15:17:07;;;;;;;3.50;1.40;;;21.60;1.00;;;;;;8262595;28;20191;-71
2023/05/30 15:21:10;;;;;;;2.53;1.50;;;21.60;1.00;;;;;;8260785;28;20238;-69
2023/05/30 15:25:11;;;;;;;2.83;1.53;;;21.60;1.00;;;;;;8261755;28;20209;-71
2023/05/30 15:29:15;;;;;;;5.03;1.13;;;21.60;1.00;;;;;;8259517;28;20188;-70
2023/05/30 15:33:16;;;;;;;1.50;1.00;;;21.40;1.00;;;;;;8269596;28;20199;-72
2023/05/30 15:37:17;;;;;;;6.77;4.03;;;21.40;1.00;;;;;;8275362;28;20283;-73
2023/05/30 15:41:18;;;;;;;3.43;1.53;;;21.40;1.00;;;;;;8278805;28;20195;-73
2023/05/30 15:45:22;;;;;;;4.37;1.00;;;21.50;1.00;;;;;;8274241;28;20223;-71
2023/05/30 15:49:27;;;;;;;3.50;1.40;;;21.50;1.00;;;;;;8273391;28;20202;-72
2023/05/30 15:53:34;;;;;;;2.27;1.60;;;21.60;1.00;;;;;;8272271;28;20193;-73
2023/05/30 15:57:35;;;;;;;5.53;1.77;;;21.60;1.00;;;;;;8270463;28;20229;-70
2023/05/30 16:01:39;;;;;;;3.67;1.43;;;21.60;1.00;;;;;;8285793;28;20239;-71
2023/05/30 16:05:44;;;;;;;5.87;2.03;;;21.60;1.00;;;;;;8264012;28;20235;-73
2023/05/30 16:09:45;;;;;;;2.40;1.40;;;21.50;1.00;;;;;;8259421;28;20210;-72
2023/05/30 16:13:46;;;;;;;1.83;1.10;;;21.40;1.00;;;;;;8259351;28;20210;-71
2023/05/30 16:17:48;;;;;;;4.23;1.60;;;21.40;1.00;;;;;;8254090;28;20199;-69
2023/05/30 16:21:49;;;;;;;3.13;1.43;;;21.30;1.00;;;;;;8257207;28;20196;-73
2023/05/30 16:25:50;;;;;;;3.90;1.50;;;21.20;1.00;;;;;;8255879;28;20214;-69
2023/05/30 16:29:51;;;;;;;3.00;1.70;;;21.10;1.00;;;;;;8289691;28;20271;-72
2023/05/30 16:33:55;;;;;;;1.77;1.23;;;21.20;1.00;;;;;;8255999;28;20213;-74
2023/05/30 16:37:57;;;;;;;2.63;1.57;;;21.10;1.00;;;;;;8272220;28;20256;-73
2023/05/30 16:42:07;;;;;;;8.33;1.90;;;21.00;1.00;;;;;;8287428;28;20199;-72
2023/05/30 16:46:09;;;;;;;4.80;1.67;;;21.00;1.00;;;;;;8270388;28;20322;-73
2023/05/30 16:50:10;;;;;;;4.03;1.60;;;21.00;1.00;;;;;;8258784;28;20188;-71
2023/05/30 16:54:13;;;;;;;9.10;5.90;;;20.80;1.00;;;;;;8264140;28;20196;-73
2023/05/30 16:58:16;;;;;;;4.97;2.87;;;20.80;1.00;;;;;;8276877;28;20279;-73
2023/05/30 17:02:19;;;;;;;6.53;4.03;;;20.80;1.00;;;;;;8272525;28;20274;-72
2023/05/30 17:06:20;;;;;;;8.37;3.73;;;20.80;1.00;;;;;;8254696;28;20302;-73
2023/05/30 17:10:23;;;;;;;5.10;2.30;;;20.80;1.00;;;;;;8258974;28;20195;-73
2023/05/30 17:14:24;;;;;;;3.43;1.80;;;20.80;1.00;;;;;;8270847;28;20267;-72
2023/05/30 17:18:25;;;;;;;4.03;1.40;;;21.30;1.00;;;;;;8260623;28;20198;-71
2023/05/30 17:22:27;;;;;;;6.33;3.27;;;22.30;1.00;;;;;;8265943;28;20195;-73
2023/05/30 17:26:29;;;;;;;7.73;4.37;;;23.20;1.00;;;;;;8281226;28;20212;-71
2023/05/30 17:30:31;;;;;;;2.70;1.30;;;23.80;1.00;;;;;;8270283;28;20257;-71
2023/05/30 17:34:38;;;;;;;4.40;2.63;;;24.30;1.00;;;;;;8251600;28;20188;-70
2023/05/30 17:38:39;;;;;;;8.67;3.70;;;25.00;1.00;;;;;;8269995;28;20278;-72
2023/05/30 17:42:40;;;;;;;3.90;1.60;;;25.50;1.00;;;;;;8259448;28;20202;-71
2023/05/30 17:46:41;;;;;;;2.85;1.52;;;25.80;1.00;;;;;;8258171;28;20223;-72
2023/05/30 17:50:48;;;;;;;7.55;2.53;;;26.00;1.00;;;;;;8274516;28;20188;-71
2023/05/30 17:54:50;;;;;;;6.00;2.83;;;26.20;1.00;;;;;;8259182;28;20214;-73
2023/05/30 17:58:54;;;;;;;5.72;4.07;;;26.50;1.00;;;;;;8289427;28;20271;-70
2023/05/30 18:02:56;;;;;;;6.65;3.85;;;26.80;1.00;;;;;;8252807;28;20211;-71
2023/05/30 18:06:57;;;;;;;6.07;2.47;;;26.90;1.00;;;;;;8256956;28;20218;-71
2023/05/30 18:10:59;;;;;;;5.60;2.17;;;27.00;1.00;;;;;;8252924;28;20210;-72
2023/05/30 18:15:00;;;;;;;5.43;2.72;;;26.90;1.00;;;;;;8272530;28;20217;-70
2023/05/30 18:19:01;;;;;;;6.50;3.30;;;26.80;1.00;;;;;;8270140;28;20187;-70
2023/05/30 18:23:03;;;;;;;3.08;2.40;;;26.50;1.00;;;;;;8258466;28;20183;-71
2023/05/30 18:27:05;;;;;;;5.05;2.05;;;26.20;1.00;;;;;;8256906;28;20274;-71
2023/05/30 18:31:07;;;;;;;3.87;2.10;;;25.80;1.00;;;;;;8272839;28;20188;-71
2023/05/30 18:35:09;;;;;;;3.47;2.10;;;25.20;1.00;;;;;;8275005;28;20184;-70
2023/05/30 18:39:11;;;;;;;3.43;1.80;;;24.50;1.00;;;;;;8254585;28;20216;-71
2023/05/30 18:43:12;;;;;;;3.60;1.40;;;23.70;1.00;;;;;;8272695;28;20191;-71
2023/05/30 18:47:14;;;;;;;3.60;1.90;;;22.80;1.00;;;;;;8268224;28;20242;-70
2023/05/30 18:51:16;;;;;;;3.53;2.20;;;21.70;1.00;;;;;;8285270;28;20220;-67
2023/05/30 18:55:19;;;;;;;3.10;2.60;;;20.40;1.00;;;;;;8258675;28;20210;-66
2023/05/30 18:59:20;;;;;;;4.70;2.40;;;19.40;1.00;;;;;;8286859;28;20330;-67
2023/05/30 19:03:24;;;;;;;3.60;2.03;;;18.50;1.00;;;;;;8256841;28;20222;-68
2023/05/30 19:07:25;;;;;;;5.93;1.70;;;17.80;1.00;;;;;;8268643;28;20218;-65
2023/05/30 19:11:26;;;;;;;4.20;1.70;;;17.10;1.00;;;;;;8268723;28;20191;-66
2023/05/30 19:15:28;;;;;;;1.90;1.60;;;16.50;1.00;;;;;;8271250;28;20195;-66
2023/05/30 19:19:32;;;;;;;2.67;1.40;;;15.90;1.00;;;;;;8258719;28;20188;-67
2023/05/30 19:23:33;;;;;;;2.63;1.50;;;15.50;1.00;;;;;;8266103;28;20195;-67
2023/05/30 19:27:34;;;;;;;2.60;1.37;;;15.10;1.00;;;;;;8263298;28;20227;-63
2023/05/30 19:31:36;;;;;;;3.13;1.47;;;14.80;1.00;;;;;;8266073;28;20215;-63
2023/05/30 19:35:37;;;;;;;3.03;1.77;;;14.60;1.00;;;;;;8259841;28;20191;-64
2023/05/30 19:39:39;;;;;;;3.17;1.60;;;14.30;1.00;;;;;;8256993;28;20187;-64
2023/05/30 19:43:40;;;;;;;1.93;1.43;;;14.10;1.00;;;;;;8257787;28;20195;-63
2023/05/30 19:47:41;;;;;;;4.67;1.90;;;13.90;1.00;;;;;;8253483;28;20274;-63
2023/05/30 19:51:42;;;;;;;1.87;1.30;;;13.60;1.00;;;;;;8256689;28;20223;-63
2023/05/30 19:55:43;;;;;;;1.70;1.40;;;13.40;1.00;;;;;;8271077;28;20206;-63
2023/05/30 19:59:47;;;;;;;2.60;1.67;;;13.10;1.00;;;;;;8285381;28;20184;-63
2023/05/30 20:03:48;;;;;;;1.83;1.20;;;12.90;1.00;;;;;;8271926;28;20239;-64
2023/05/30 20:07:49;;;;;;;1.97;1.60;;;12.70;1.00;;;;;;8267657;28;20219;-65
2023/05/30 20:11:51;;;;;;;2.93;1.87;;;12.50;1.00;;;;;;8254364;28;20202;-65
2023/05/30 20:15:52;;;;;;;2.00;1.43;;;12.30;1.00;;;;;;8255543;28;20199;-64
2023/05/30 20:19:53;;;;;;;2.90;1.90;;;12.10;1.00;;;;;;8267955;28;20291;-64
2023/05/30 20:23:54;;;;;;;2.80;1.80;;;11.90;1.00;;;;;;8265539;28;20286;-64
2023/05/30 20:27:55;;;;;;;2.13;1.63;;;11.80;1.00;;;;;;8267830;28;20217;-64
2023/05/30 20:31:56;;;;;;;2.17;1.30;;;11.60;1.00;;;;;;8266550;28;20210;-65
2023/05/30 20:35:57;;;;;;;2.33;1.50;;;11.50;1.00;;;;;;8266448;28;20198;-65
2023/05/30 20:39:58;;;;;;;2.53;1.67;;;11.30;1.00;;;;;;8267645;28;20256;-64
2023/05/30 20:44:03;;;;;;;2.70;1.40;;;11.20;1.00;;;;;;8254061;28;20205;-64
2023/05/30 20:48:06;;;;;;;2.00;1.60;;;11.10;1.00;;;;;;8251344;28;20223;-64
2023/05/30 20:52:07;;;;;;;3.03;1.70;;;10.90;1.00;;;;;;8268666;28;20268;-64
2023/05/30 20:56:08;;;;;;;2.00;1.47;;;10.80;1.00;;;;;;8281327;28;20210;-63
2023/05/30 21:00:12;;;;;;;3.20;1.70;;;10.70;1.00;;;;;;8268761;28;20196;-64
2023/05/30 21:04:13;;;;;;;2.67;1.60;;;10.60;1.00;;;;;;8252233;28;20207;-64
2023/05/30 21:08:15;;;;;;;2.53;1.80;;;10.40;1.00;;;;;;8253650;28;20230;-64
2023/05/30 21:12:16;;;;;;;2.17;1.70;;;10.30;7.40;;;;;;8264538;28;20350;-64
2023/05/30 21:16:20;;;;;;;3.50;2.10;;;10.20;14.80;;;;;;8268714;28;20248;-65
2023/05/30 21:20:21;;;;;;;2.77;1.97;;;10.10;21.10;;;;;;8253283;28;20222;-64
2023/05/30 21:24:23;;;;;;;3.97;2.03;;;10.00;22.80;;;;;;8284079;28;20199;-65